Time,TemperatureF,DewpointF,PressureIn,WindDirection,WindDirectionDegrees,WindSpeedMPH,WindSpeedGustMPH,Humidity,HourlyPrecipIn,Conditions,Clouds,dailyrainin,SoftwareType,DateUTC
2013-02-13 00:00:00,46.6,43.8,30.31,SSW,211,0.0,7.0,90,0.00,,,0.02,WUHU216DAVISVP2,2013-02-13 08:00:00,
2013-02-13 00:05:00,46.6,43.8,30.31,SSW,210,0.0,5.0,90,0.00,,,0.00,WUHU216DAVISVP2,2013-02-13 08:05:00,
2013-02-13 00:10:00,46.7,43.9,30.31,SW,218,3.0,6.0,90,0.00,,,0.00,WUHU216DAVISVP2,2013-02-13 08:10:00,
2013-02-13 00:15:00,46.8,44.0,30.31,SW,226,0.0,6.0,90,0.00,,,0.00,WUHU216DAVISVP2,2013-02-13 08:15:00,
2013-02-13 00:20:00,46.9,44.1,30.32,SW,217,4.0,10.0,90,0.00,,,0.00,WUHU216DAVISVP2,2013-02-13 08:20:00,
2013-02-13 00:25:00,46.9,44.1,30.31,SSW,213,2.0,10.0,90,0.00,,,0.00,WUHU216DAVISVP2,2013-02-13 08:25:00,
2013-02-13 00:30:00,46.9,44.1,30.32,SSW,206,5.0,10.0,90,0.00,,,0.00,WUHU216DAVISVP2,2013-02-13 08:30:00,
2013-02-13 00:35:00,46.9,44.1,30.32,SSW,213,5.0,10.0,90,0.00,,,0.00,WUHU216DAVISVP2,2013-02-13 08:35:00,
2013-02-13 00:40:00,46.9,44.1,30.32,SW,214,1.0,6.0,90,0.00,,,0.00,WUHU216DAVISVP2,2013-02-13 08:40:00,
2013-02-13 00:45:00,46.7,44.2,30.32,SSW,195,0.0,11.0,91,0.00,,,0.00,WUHU216DAVISVP2,2013-02-13 08:45:00,
2013-02-13 00:50:00,46.5,44.3,30.32,SSW,209,1.0,11.0,92,0.00,,,0.00,WUHU216DAVISVP2,2013-02-13 08:50:00,
2013-02-13 00:55:00,46.3,44.1,30.31,SSW,202,3.0,9.0,92,0.00,,,0.00,WUHU216DAVISVP2,2013-02-13 08:55:00,
2013-02-13 01:00:00,46.0,44.0,30.31,SSW,206,2.0,10.0,93,0.00,,,0.00,WUHU216DAVISVP2,2013-02-13 09:00:00,
2013-02-13 01:05:00,45.8,44.1,30.30,SSW,209,3.0,10.0,94,0.00,,,0.00,WUHU216DAVISVP2,2013-02-13 09:05:00,
2013-02-13 01:10:00,45.7,44.0,30.30,SSW,211,2.0,9.0,94,0.00,,,0.00,WUHU216DAVISVP2,2013-02-13 09:10:00,
2013-02-13 01:15:00,45.6,43.9,30.31,SW,219,0.0,9.0,94,0.00,,,0.00,WUHU216DAVISVP2,2013-02-13 09:15:00,
2013-02-13 01:20:00,45.6,44.2,30.31,SW,214,0.0,7.0,95,0.00,,,0.00,WUHU216DAVISVP2,2013-02-13 09:20:00,
2013-02-13 01:25:00,45.6,43.9,30.31,SSW,206,0.0,6.0,94,0.00,,,0.00,WUHU216DAVISVP2,2013-02-13 09:25:00,
2013-02-13 01:30:00,45.5,44.1,30.31,SSW,207,0.0,5.0,95,0.00,,,0.00,WUHU216DAVISVP2,2013-02-13 09:30:00,
2013-02-13 01:35:00,45.5,44.1,30.32,SSW,207,0.0,5.0,95,0.01,,,0.01,WUHU216DAVISVP2,2013-02-13 09:35:00,
2013-02-13 01:40:00,45.5,44.1,30.32,SSW,207,0.0,3.0,95,0.01,,,0.01,WUHU216DAVISVP2,2013-02-13 09:40:00,
2013-02-13 01:45:00,45.5,44.1,30.32,WNW,290,2.0,5.0,95,0.01,,,0.01,WUHU216DAVISVP2,2013-02-13 09:45:00,
2013-02-13 01:50:00,45.2,43.8,30.33,WSW,250,1.0,5.0,95,0.02,,,0.02,WUHU216DAVISVP2,2013-02-13 09:50:00,
2013-02-13 01:55:00,44.8,43.1,30.33,WNW,298,4.0,7.0,94,0.03,,,0.03,WUHU216DAVISVP2,2013-02-13 09:55:00,
2013-02-13 02:00:00,44.5,42.8,30.33,WNW,293,0.0,9.0,94,0.03,,,0.03,WUHU216DAVISVP2,2013-02-13 10:00:00,
2013-02-13 02:05:00,44.3,42.6,30.33,WNW,292,0.0,9.0,94,0.03,,,0.03,WUHU216DAVISVP2,2013-02-13 10:05:00,
2013-02-13 02:10:00,44.2,42.5,30.33,WNW,293,0.0,0.0,94,0.04,,,0.04,WUHU216DAVISVP2,2013-02-13 10:10:00,
2013-02-13 02:15:00,44.1,42.4,30.33,WNW,294,2.0,4.0,94,0.05,,,0.05,WUHU216DAVISVP2,2013-02-13 10:15:00,
2013-02-13 02:20:00,44.0,42.3,30.33,WNW,301,1.0,7.0,94,0.05,,,0.05,WUHU216DAVISVP2,2013-02-13 10:20:00,
2013-02-13 02:25:00,43.8,42.1,30.33,NW,311,3.0,8.0,94,0.05,,,0.05,WUHU216DAVISVP2,2013-02-13 10:25:00,
2013-02-13 02:30:00,43.8,42.4,30.34,NW,311,0.0,8.0,95,0.06,,,0.06,WUHU216DAVISVP2,2013-02-13 10:30:00,
2013-02-13 02:35:00,43.7,42.3,30.34,NW,311,0.0,2.0,95,0.06,,,0.07,WUHU216DAVISVP2,2013-02-13 10:35:00,
2013-02-13 02:40:00,43.7,42.3,30.34,NW,311,0.0,0.0,95,0.06,,,0.07,WUHU216DAVISVP2,2013-02-13 10:40:00,
2013-02-13 02:45:00,43.7,42.3,30.34,NW,311,0.0,0.0,95,0.07,,,0.08,WUHU216DAVISVP2,2013-02-13 10:45:00,
2013-02-13 02:50:00,43.6,42.2,30.34,NW,311,0.0,0.0,95,0.07,,,0.09,WUHU216DAVISVP2,2013-02-13 10:50:00,
2013-02-13 02:55:00,43.5,42.1,30.34,NW,311,0.0,3.0,95,0.06,,,0.09,WUHU216DAVISVP2,2013-02-13 10:55:00,
2013-02-13 03:00:00,43.4,42.0,30.34,NW,311,0.0,3.0,95,0.06,,,0.09,WUHU216DAVISVP2,2013-02-13 11:00:00,
2013-02-13 03:05:00,43.4,42.0,30.34,NW,311,0.0,0.0,95,0.06,,,0.09,WUHU216DAVISVP2,2013-02-13 11:05:00,
2013-02-13 03:10:00,43.4,42.0,30.34,NW,311,0.0,0.0,95,0.06,,,0.10,WUHU216DAVISVP2,2013-02-13 11:10:00,
2013-02-13 03:15:00,43.4,42.0,30.34,NW,311,0.0,0.0,95,0.05,,,0.10,WUHU216DAVISVP2,2013-02-13 11:15:00,
2013-02-13 03:20:00,43.4,42.0,30.34,NW,311,0.0,0.0,95,0.06,,,0.11,WUHU216DAVISVP2,2013-02-13 11:20:00,
2013-02-13 03:25:00,43.4,42.0,30.34,NW,311,0.0,0.0,95,0.06,,,0.11,WUHU216DAVISVP2,2013-02-13 11:25:00,
2013-02-13 03:30:00,43.3,41.9,30.34,NW,311,0.0,0.0,95,0.05,,,0.11,WUHU216DAVISVP2,2013-02-13 11:30:00,
2013-02-13 03:35:00,43.3,41.9,30.34,NW,311,0.0,0.0,95,0.04,,,0.11,WUHU216DAVISVP2,2013-02-13 11:35:00,
2013-02-13 03:40:00,43.2,41.8,30.34,NW,311,0.0,0.0,95,0.07,,,0.14,WUHU216DAVISVP2,2013-02-13 11:40:00,
2013-02-13 03:45:00,43.2,41.8,30.34,NW,311,0.0,0.0,95,0.07,,,0.15,WUHU216DAVISVP2,2013-02-13 11:45:00,
2013-02-13 03:50:00,43.1,41.7,30.35,NW,311,0.0,0.0,95,0.08,,,0.17,WUHU216DAVISVP2,2013-02-13 11:50:00,
2013-02-13 03:55:00,43.1,41.7,30.35,NW,311,0.0,0.0,95,0.08,,,0.17,WUHU216DAVISVP2,2013-02-13 11:55:00,
2013-02-13 04:00:00,43.0,41.6,30.35,NW,311,0.0,1.0,95,0.08,,,0.17,WUHU216DAVISVP2,2013-02-13 12:00:00,
2013-02-13 04:05:00,43.0,41.6,30.35,NW,311,0.0,1.0,95,0.08,,,0.17,WUHU216DAVISVP2,2013-02-13 12:05:00,
2013-02-13 04:10:00,42.9,41.5,30.35,NNE,16,4.0,5.0,95,0.07,,,0.17,WUHU216DAVISVP2,2013-02-13 12:10:00,
2013-02-13 04:15:00,42.8,41.4,30.35,East,79,0.0,5.0,95,0.07,,,0.17,WUHU216DAVISVP2,2013-02-13 12:15:00,
2013-02-13 04:20:00,42.8,41.4,30.35,East,79,0.0,5.0,95,0.07,,,0.18,WUHU216DAVISVP2,2013-02-13 12:20:00,
2013-02-13 04:25:00,42.8,41.4,30.35,East,79,0.0,0.0,95,0.07,,,0.18,WUHU216DAVISVP2,2013-02-13 12:25:00,
2013-02-13 04:30:00,42.8,41.4,30.35,East,79,0.0,0.0,95,0.08,,,0.19,WUHU216DAVISVP2,2013-02-13 12:30:00,
2013-02-13 04:35:00,42.7,41.3,30.35,East,79,0.0,0.0,95,0.08,,,0.19,WUHU216DAVISVP2,2013-02-13 12:35:00,
2013-02-13 04:40:00,42.7,41.3,30.35,East,79,0.0,3.0,95,0.05,,,0.19,WUHU216DAVISVP2,2013-02-13 12:40:00,
2013-02-13 04:45:00,42.7,41.3,30.36,East,79,0.0,3.0,95,0.04,,,0.19,WUHU216DAVISVP2,2013-02-13 12:45:00,
2013-02-13 04:50:00,42.7,41.3,30.36,East,79,0.0,3.0,95,0.02,,,0.19,WUHU216DAVISVP2,2013-02-13 12:50:00,
2013-02-13 04:55:00,42.7,41.3,30.36,East,79,0.0,3.0,95,0.02,,,0.19,WUHU216DAVISVP2,2013-02-13 12:55:00,
2013-02-13 05:00:00,42.7,41.3,30.36,East,82,0.0,0.0,95,0.02,,,0.19,WUHU216DAVISVP2,2013-02-13 13:00:00,
2013-02-13 05:05:00,42.6,41.2,30.36,East,82,0.0,0.0,95,0.02,,,0.19,WUHU216DAVISVP2,2013-02-13 13:05:00,
2013-02-13 05:10:00,42.6,41.2,30.36,East,82,0.0,2.0,95,0.02,,,0.19,WUHU216DAVISVP2,2013-02-13 13:10:00,
2013-02-13 05:15:00,42.6,41.2,30.36,East,82,0.0,2.0,95,0.02,,,0.19,WUHU216DAVISVP2,2013-02-13 13:15:00,
2013-02-13 05:20:00,42.5,41.1,30.36,East,82,0.0,3.0,95,0.01,,,0.19,WUHU216DAVISVP2,2013-02-13 13:20:00,
2013-02-13 05:25:00,42.5,41.1,30.36,East,82,0.0,3.0,95,0.01,,,0.19,WUHU216DAVISVP2,2013-02-13 13:25:00,
2013-02-13 05:30:00,42.4,41.0,30.36,East,82,0.0,0.0,95,0.00,,,0.19,WUHU216DAVISVP2,2013-02-13 13:30:00,
2013-02-13 05:35:00,42.4,41.0,30.36,East,82,0.0,0.0,95,0.00,,,0.19,WUHU216DAVISVP2,2013-02-13 13:35:00,
2013-02-13 05:40:00,42.4,41.0,30.37,East,82,0.0,0.0,95,0.00,,,0.19,WUHU216DAVISVP2,2013-02-13 13:40:00,
2013-02-13 05:45:00,42.4,41.0,30.37,East,82,0.0,1.0,95,0.00,,,0.19,WUHU216DAVISVP2,2013-02-13 13:45:00,
2013-02-13 05:50:00,42.4,41.0,30.36,East,82,0.0,1.0,95,0.00,,,0.19,WUHU216DAVISVP2,2013-02-13 13:50:00,
2013-02-13 05:55:00,42.4,41.0,30.36,East,82,0.0,1.0,95,0.00,,,0.19,WUHU216DAVISVP2,2013-02-13 13:55:00,
2013-02-13 06:00:00,42.4,41.0,30.36,East,82,0.0,1.0,95,0.00,,,0.19,WUHU216DAVISVP2,2013-02-13 14:00:00,
2013-02-13 06:05:00,42.4,41.0,30.36,East,82,0.0,0.0,95,0.00,,,0.19,WUHU216DAVISVP2,2013-02-13 14:05:00,
2013-02-13 06:10:00,42.4,41.0,30.37,East,82,0.0,0.0,95,0.00,,,0.19,WUHU216DAVISVP2,2013-02-13 14:10:00,
2013-02-13 06:15:00,42.4,41.0,30.37,East,82,0.0,0.0,95,0.00,,,0.19,WUHU216DAVISVP2,2013-02-13 14:15:00,
2013-02-13 06:20:00,42.5,41.1,30.37,East,82,0.0,3.0,95,0.00,,,0.19,WUHU216DAVISVP2,2013-02-13 14:20:00,
2013-02-13 06:25:00,42.5,41.1,30.37,East,82,0.0,3.0,95,0.00,,,0.19,WUHU216DAVISVP2,2013-02-13 14:25:00,
2013-02-13 06:30:00,42.6,41.2,30.37,East,82,0.0,0.0,95,0.00,,,0.19,WUHU216DAVISVP2,2013-02-13 14:30:00,
2013-02-13 06:35:00,42.5,41.1,30.37,East,82,0.0,0.0,95,0.00,,,0.19,WUHU216DAVISVP2,2013-02-13 14:35:00,
2013-02-13 06:40:00,42.5,41.1,30.37,East,82,0.0,0.0,95,0.00,,,0.19,WUHU216DAVISVP2,2013-02-13 14:40:00,
2013-02-13 06:45:00,42.5,41.1,30.38,East,82,0.0,0.0,95,0.00,,,0.19,WUHU216DAVISVP2,2013-02-13 14:45:00,
2013-02-13 06:50:00,42.4,41.0,30.38,East,82,0.0,0.0,95,0.00,,,0.19,WUHU216DAVISVP2,2013-02-13 14:50:00,
2013-02-13 06:55:00,42.3,40.9,30.38,East,82,0.0,0.0,95,0.01,,,0.20,WUHU216DAVISVP2,2013-02-13 14:55:00,
2013-02-13 07:00:00,42.3,40.9,30.38,East,82,0.0,0.0,95,0.01,,,0.20,WUHU216DAVISVP2,2013-02-13 15:00:00,
2013-02-13 07:05:00,42.2,40.8,30.38,East,82,0.0,0.0,95,0.01,,,0.20,WUHU216DAVISVP2,2013-02-13 15:05:00,
2013-02-13 07:10:00,42.2,40.8,30.38,East,82,0.0,0.0,95,0.01,,,0.20,WUHU216DAVISVP2,2013-02-13 15:10:00,
2013-02-13 07:15:00,42.2,40.8,30.38,East,82,0.0,0.0,95,0.01,,,0.20,WUHU216DAVISVP2,2013-02-13 15:15:00,
2013-02-13 07:20:00,42.2,40.8,30.38,East,82,0.0,0.0,95,0.01,,,0.20,WUHU216DAVISVP2,2013-02-13 15:20:00,
2013-02-13 07:25:00,42.2,40.8,30.38,East,82,0.0,0.0,95,0.02,,,0.21,WUHU216DAVISVP2,2013-02-13 15:25:00,
2013-02-13 07:30:00,42.2,40.8,30.39,East,82,0.0,2.0,95,0.02,,,0.21,WUHU216DAVISVP2,2013-02-13 15:30:00,
2013-02-13 07:35:00,42.2,40.8,30.39,East,82,0.0,2.0,95,0.02,,,0.21,WUHU216DAVISVP2,2013-02-13 15:35:00,
2013-02-13 07:40:00,42.2,40.8,30.39,East,82,0.0,1.0,95,0.02,,,0.21,WUHU216DAVISVP2,2013-02-13 15:40:00,
2013-02-13 07:45:00,42.2,40.8,30.39,East,82,0.0,0.0,95,0.02,,,0.21,WUHU216DAVISVP2,2013-02-13 15:45:00,
2013-02-13 07:50:00,42.2,40.8,30.39,East,82,2.0,3.0,95,0.02,,,0.21,WUHU216DAVISVP2,2013-02-13 15:50:00,
2013-02-13 07:55:00,42.1,40.7,30.39,ENE,78,0.0,5.0,95,0.01,,,0.21,WUHU216DAVISVP2,2013-02-13 15:55:00,
2013-02-13 08:00:00,42.1,40.7,30.40,ENE,78,0.0,5.0,95,0.01,,,0.21,WUHU216DAVISVP2,2013-02-13 16:00:00,
2013-02-13 08:05:00,42.0,40.6,30.40,ENE,78,0.0,0.0,95,0.01,,,0.21,WUHU216DAVISVP2,2013-02-13 16:05:00,
2013-02-13 08:10:00,42.0,40.6,30.40,ENE,78,0.0,0.0,95,0.01,,,0.21,WUHU216DAVISVP2,2013-02-13 16:10:00,
2013-02-13 08:15:00,42.0,40.6,30.40,ENE,78,0.0,0.0,95,0.01,,,0.21,WUHU216DAVISVP2,2013-02-13 16:15:00,
2013-02-13 08:20:00,42.0,40.6,30.40,ENE,78,0.0,0.0,95,0.01,,,0.21,WUHU216DAVISVP2,2013-02-13 16:20:00,
2013-02-13 08:25:00,41.9,40.5,30.40,ENE,78,0.0,0.0,95,0.00,,,0.21,WUHU216DAVISVP2,2013-02-13 16:25:00,
2013-02-13 08:30:00,42.0,40.6,30.41,ENE,78,0.0,0.0,95,0.00,,,0.21,WUHU216DAVISVP2,2013-02-13 16:30:00,
2013-02-13 08:35:00,42.0,40.6,30.41,ENE,78,0.0,0.0,95,0.00,,,0.21,WUHU216DAVISVP2,2013-02-13 16:35:00,
2013-02-13 08:40:00,42.0,40.6,30.41,ENE,78,0.0,0.0,95,0.00,,,0.21,WUHU216DAVISVP2,2013-02-13 16:40:00,
2013-02-13 08:45:00,42.0,40.6,30.41,ENE,78,0.0,0.0,95,0.00,,,0.21,WUHU216DAVISVP2,2013-02-13 16:45:00,
2013-02-13 08:50:00,42.1,40.7,30.41,ENE,78,0.0,0.0,95,0.00,,,0.21,WUHU216DAVISVP2,2013-02-13 16:50:00,
2013-02-13 08:55:00,42.2,40.8,30.41,ENE,78,0.0,0.0,95,0.00,,,0.21,WUHU216DAVISVP2,2013-02-13 16:55:00,
2013-02-13 09:00:00,42.3,40.9,30.41,ENE,78,0.0,0.0,95,0.00,,,0.21,WUHU216DAVISVP2,2013-02-13 17:00:00,
2013-02-13 09:05:00,42.4,41.3,30.42,ENE,78,0.0,0.0,96,0.00,,,0.21,WUHU216DAVISVP2,2013-02-13 17:05:00,
2013-02-13 09:10:00,42.4,41.0,30.42,ENE,78,0.0,0.0,95,0.00,,,0.21,WUHU216DAVISVP2,2013-02-13 17:10:00,
2013-02-13 09:15:00,42.5,41.1,30.42,ENE,78,1.0,3.0,95,0.00,,,0.21,WUHU216DAVISVP2,2013-02-13 17:15:00,
2013-02-13 09:20:00,42.5,41.1,30.42,ENE,78,0.0,3.0,95,0.00,,,0.21,WUHU216DAVISVP2,2013-02-13 17:20:00,
2013-02-13 09:25:00,42.5,41.1,30.42,ENE,78,0.0,1.0,95,0.00,,,0.21,WUHU216DAVISVP2,2013-02-13 17:25:00,
2013-02-13 09:30:00,42.5,41.1,30.42,ENE,78,0.0,0.0,95,0.00,,,0.21,WUHU216DAVISVP2,2013-02-13 17:30:00,
2013-02-13 09:35:00,42.5,41.1,30.43,ENE,78,0.0,0.0,95,0.00,,,0.21,WUHU216DAVISVP2,2013-02-13 17:35:00,
2013-02-13 09:40:00,42.6,41.2,30.43,ENE,78,0.0,0.0,95,0.00,,,0.21,WUHU216DAVISVP2,2013-02-13 17:40:00,
2013-02-13 09:45:00,42.6,41.2,30.43,ENE,78,0.0,1.0,95,0.00,,,0.21,WUHU216DAVISVP2,2013-02-13 17:45:00,
2013-02-13 09:50:00,42.7,41.3,30.43,ENE,78,0.0,1.0,95,0.00,,,0.21,WUHU216DAVISVP2,2013-02-13 17:50:00,
2013-02-13 09:55:00,42.6,41.2,30.43,ENE,78,0.0,3.0,95,0.00,,,0.21,WUHU216DAVISVP2,2013-02-13 17:55:00,
2013-02-13 10:00:00,42.5,41.1,30.43,ENE,78,0.0,3.0,95,0.00,,,0.21,WUHU216DAVISVP2,2013-02-13 18:00:00,
2013-02-13 10:05:00,42.5,41.1,30.43,ENE,78,0.0,2.0,95,0.00,,,0.21,WUHU216DAVISVP2,2013-02-13 18:05:00,
2013-02-13 10:10:00,42.4,41.0,30.43,ENE,76,1.0,3.0,95,0.00,,,0.21,WUHU216DAVISVP2,2013-02-13 18:10:00,
2013-02-13 10:15:00,42.4,41.0,30.43,ENE,76,0.0,4.0,95,0.00,,,0.21,WUHU216DAVISVP2,2013-02-13 18:15:00,
2013-02-13 10:20:00,42.3,40.9,30.43,ENE,76,0.0,4.0,95,0.00,,,0.21,WUHU216DAVISVP2,2013-02-13 18:20:00,
2013-02-13 10:25:00,42.3,40.9,30.43,East,80,0.0,3.0,95,0.00,,,0.21,WUHU216DAVISVP2,2013-02-13 18:25:00,
2013-02-13 10:30:00,42.3,40.9,30.43,East,79,0.0,3.0,95,0.00,,,0.21,WUHU216DAVISVP2,2013-02-13 18:30:00,
2013-02-13 10:35:00,42.3,40.9,30.43,East,80,0.0,0.0,95,0.00,,,0.21,WUHU216DAVISVP2,2013-02-13 18:35:00,
2013-02-13 10:40:00,42.3,40.9,30.43,East,79,0.0,2.0,95,0.00,,,0.21,WUHU216DAVISVP2,2013-02-13 18:40:00,
2013-02-13 10:45:00,42.3,40.9,30.43,East,79,0.0,2.0,95,0.00,,,0.21,WUHU216DAVISVP2,2013-02-13 18:45:00,
2013-02-13 10:50:00,42.3,40.9,30.43,East,80,0.0,0.0,95,0.00,,,0.21,WUHU216DAVISVP2,2013-02-13 18:50:00,
2013-02-13 10:55:00,42.3,40.9,30.43,East,79,0.0,0.0,95,0.00,,,0.21,WUHU216DAVISVP2,2013-02-13 18:55:00,
2013-02-13 11:00:00,42.3,40.9,30.43,East,80,0.0,0.0,95,0.00,,,0.21,WUHU216DAVISVP2,2013-02-13 19:00:00,
2013-02-13 11:05:00,42.4,41.0,30.43,East,79,0.0,0.0,95,0.00,,,0.21,WUHU216DAVISVP2,2013-02-13 19:05:00,
2013-02-13 11:10:00,42.5,41.1,30.43,East,80,0.0,0.0,95,0.00,,,0.21,WUHU216DAVISVP2,2013-02-13 19:10:00,
2013-02-13 11:15:00,42.7,41.3,30.44,East,79,0.0,0.0,95,0.00,,,0.21,WUHU216DAVISVP2,2013-02-13 19:15:00,
2013-02-13 11:20:00,42.6,41.2,30.44,East,80,0.0,0.0,95,0.00,,,0.21,WUHU216DAVISVP2,2013-02-13 19:20:00,
2013-02-13 11:25:00,42.7,41.3,30.43,East,80,0.0,0.0,95,0.00,,,0.21,WUHU216DAVISVP2,2013-02-13 19:25:00,
2013-02-13 11:30:00,42.7,41.3,30.43,East,79,0.0,0.0,95,0.01,,,0.22,WUHU216DAVISVP2,2013-02-13 19:30:00,
2013-02-13 11:35:00,42.7,41.3,30.43,East,80,0.0,0.0,95,0.01,,,0.22,WUHU216DAVISVP2,2013-02-13 19:35:00,
2013-02-13 11:40:00,42.7,41.3,30.43,North,355,0.0,0.0,95,0.01,,,0.22,WUHU216DAVISVP2,2013-02-13 19:40:00,
2013-02-13 11:45:00,42.8,41.4,30.43,North,9,0.0,0.0,95,0.01,,,0.22,WUHU216DAVISVP2,2013-02-13 19:45:00,
2013-02-13 11:50:00,42.9,41.5,30.43,East,98,0.0,1.0,95,0.01,,,0.22,WUHU216DAVISVP2,2013-02-13 19:50:00,
2013-02-13 11:55:00,43.1,41.7,30.43,East,98,0.0,1.0,95,0.01,,,0.22,WUHU216DAVISVP2,2013-02-13 19:55:00,
2013-02-13 12:00:00,43.4,42.3,30.43,East,101,0.0,2.0,96,0.01,,,0.22,WUHU216DAVISVP2,2013-02-13 20:00:00,
2013-02-13 12:05:00,43.6,42.2,30.43,East,101,0.0,2.0,95,0.01,,,0.22,WUHU216DAVISVP2,2013-02-13 20:05:00,
2013-02-13 12:10:00,43.8,42.1,30.43,South,170,0.0,3.0,94,0.01,,,0.22,WUHU216DAVISVP2,2013-02-13 20:10:00,
2013-02-13 12:15:00,43.8,42.1,30.43,South,169,0.0,3.0,94,0.01,,,0.22,WUHU216DAVISVP2,2013-02-13 20:15:00,
2013-02-13 12:20:00,43.8,41.9,30.43,SSE,155,2.0,4.0,93,0.01,,,0.22,WUHU216DAVISVP2,2013-02-13 20:20:00,
2013-02-13 12:25:00,43.7,41.5,30.43,SSE,155,0.0,4.0,92,0.01,,,0.22,WUHU216DAVISVP2,2013-02-13 20:25:00,
2013-02-13 12:30:00,43.6,41.7,30.43,SSE,155,0.0,4.0,93,0.00,,,0.22,WUHU216DAVISVP2,2013-02-13 20:30:00,
2013-02-13 12:35:00,43.6,41.4,30.43,SSE,155,0.0,1.0,92,0.00,,,0.22,WUHU216DAVISVP2,2013-02-13 20:35:00,
2013-02-13 12:40:00,43.6,41.7,30.43,SSE,155,0.0,1.0,93,0.00,,,0.22,WUHU216DAVISVP2,2013-02-13 20:40:00,
2013-02-13 12:45:00,43.6,41.4,30.43,SSE,155,0.0,0.0,92,0.00,,,0.22,WUHU216DAVISVP2,2013-02-13 20:45:00,
2013-02-13 12:50:00,43.7,41.5,30.43,SSE,156,0.0,2.0,92,0.00,,,0.22,WUHU216DAVISVP2,2013-02-13 20:50:00,
2013-02-13 12:55:00,43.7,41.5,30.43,SSE,157,0.0,2.0,92,0.00,,,0.22,WUHU216DAVISVP2,2013-02-13 20:55:00,
2013-02-13 13:00:00,43.6,41.4,30.43,SSE,156,0.0,2.0,92,0.00,,,0.22,WUHU216DAVISVP2,2013-02-13 21:00:00,
2013-02-13 13:05:00,43.6,41.4,30.43,South,171,0.0,4.0,92,0.00,,,0.22,WUHU216DAVISVP2,2013-02-13 21:05:00,
2013-02-13 13:10:00,43.6,41.7,30.43,South,171,0.0,3.0,93,0.00,,,0.22,WUHU216DAVISVP2,2013-02-13 21:10:00,
2013-02-13 13:15:00,43.7,41.8,30.43,South,171,0.0,0.0,93,0.00,,,0.22,WUHU216DAVISVP2,2013-02-13 21:15:00,
2013-02-13 13:20:00,43.7,41.5,30.42,South,171,0.0,0.0,92,0.00,,,0.22,WUHU216DAVISVP2,2013-02-13 21:20:00,
2013-02-13 13:25:00,43.6,41.4,30.42,South,171,0.0,1.0,92,0.00,,,0.22,WUHU216DAVISVP2,2013-02-13 21:25:00,
2013-02-13 13:35:00,43.7,41.5,30.42,North,0,0.0,0.0,92,0.00,,,0.22,WUHU216DAVISVP2,2013-02-13 21:35:00,
2013-02-13 13:40:00,43.7,41.2,30.43,North,0,0.0,0.0,91,0.00,,,0.22,WUHU216DAVISVP2,2013-02-13 21:40:00,
2013-02-13 13:45:00,43.7,41.5,30.43,North,0,0.0,0.0,92,0.00,,,0.22,WUHU216DAVISVP2,2013-02-13 21:45:00,
2013-02-13 13:50:00,43.8,41.6,30.43,North,0,0.0,0.0,92,0.00,,,0.22,WUHU216DAVISVP2,2013-02-13 21:50:00,
2013-02-13 13:55:00,43.8,41.6,30.43,North,0,0.0,0.0,92,0.00,,,0.22,WUHU216DAVISVP2,2013-02-13 21:55:00,
2013-02-13 14:00:00,43.8,41.9,30.43,North,0,0.0,0.0,93,0.00,,,0.22,WUHU216DAVISVP2,2013-02-13 22:00:00,
2013-02-13 14:05:00,43.9,42.0,30.43,North,0,0.0,0.0,93,0.00,,,0.22,WUHU216DAVISVP2,2013-02-13 22:05:00,
2013-02-13 14:10:00,44.0,41.8,30.43,North,0,0.0,0.0,92,0.00,,,0.22,WUHU216DAVISVP2,2013-02-13 22:10:00,
2013-02-13 14:15:00,43.9,41.4,30.42,North,0,0.0,0.0,91,0.00,,,0.22,WUHU216DAVISVP2,2013-02-13 22:15:00,
2013-02-13 14:20:00,43.9,41.4,30.43,North,0,0.0,0.0,91,0.00,,,0.22,WUHU216DAVISVP2,2013-02-13 22:20:00,
2013-02-13 14:25:00,43.9,41.4,30.42,North,0,0.0,0.0,91,0.00,,,0.22,WUHU216DAVISVP2,2013-02-13 22:25:00,
2013-02-13 14:30:00,44.0,41.8,30.42,North,0,0.0,0.0,92,0.00,,,0.22,WUHU216DAVISVP2,2013-02-13 22:30:00,
2013-02-13 14:35:00,44.1,41.9,30.42,North,0,0.0,0.0,92,0.00,,,0.22,WUHU216DAVISVP2,2013-02-13 22:35:00,
2013-02-13 14:40:00,44.2,42.0,30.42,North,0,0.0,0.0,92,0.00,,,0.22,WUHU216DAVISVP2,2013-02-13 22:40:00,
2013-02-13 14:45:00,44.2,41.7,30.43,North,0,0.0,0.0,91,0.00,,,0.22,WUHU216DAVISVP2,2013-02-13 22:45:00,
2013-02-13 14:50:00,44.2,41.7,30.43,North,0,0.0,0.0,91,0.00,,,0.22,WUHU216DAVISVP2,2013-02-13 22:50:00,
2013-02-13 14:55:00,44.3,42.1,30.43,North,0,0.0,0.0,92,0.00,,,0.22,WUHU216DAVISVP2,2013-02-13 22:55:00,
2013-02-13 15:00:00,44.3,42.1,30.43,North,0,0.0,0.0,92,0.00,,,0.22,WUHU216DAVISVP2,2013-02-13 23:00:00,
2013-02-13 15:05:00,44.4,42.2,30.43,North,0,0.0,0.0,92,0.00,,,0.22,WUHU216DAVISVP2,2013-02-13 23:05:00,
2013-02-13 15:10:00,44.4,42.2,30.43,North,0,0.0,0.0,92,0.00,,,0.22,WUHU216DAVISVP2,2013-02-13 23:10:00,
2013-02-13 15:15:00,44.4,42.2,30.43,North,0,0.0,0.0,92,0.00,,,0.22,WUHU216DAVISVP2,2013-02-13 23:15:00,
2013-02-13 15:20:00,44.4,42.2,30.43,North,0,0.0,0.0,92,0.00,,,0.22,WUHU216DAVISVP2,2013-02-13 23:20:00,
2013-02-13 15:25:00,44.4,42.2,30.43,North,0,0.0,0.0,92,0.00,,,0.22,WUHU216DAVISVP2,2013-02-13 23:25:00,
2013-02-13 15:30:00,44.4,42.2,30.43,North,0,0.0,0.0,92,0.00,,,0.22,WUHU216DAVISVP2,2013-02-13 23:30:00,
2013-02-13 15:35:00,44.4,42.2,30.43,North,0,0.0,0.0,92,0.00,,,0.22,WUHU216DAVISVP2,2013-02-13 23:35:00,
2013-02-13 15:40:00,44.5,42.3,30.43,North,0,0.0,0.0,92,0.00,,,0.22,WUHU216DAVISVP2,2013-02-13 23:40:00,
2013-02-13 15:45:00,44.5,42.3,30.43,North,0,0.0,0.0,92,0.00,,,0.22,WUHU216DAVISVP2,2013-02-13 23:45:00,
2013-02-13 15:50:00,44.5,42.3,30.43,North,0,0.0,0.0,92,0.00,,,0.22,WUHU216DAVISVP2,2013-02-13 23:50:00,
2013-02-13 15:55:00,44.5,42.3,30.43,North,0,0.0,0.0,92,0.00,,,0.22,WUHU216DAVISVP2,2013-02-13 23:55:00,
2013-02-13 16:00:00,44.5,42.3,30.43,North,0,0.0,0.0,92,0.00,,,0.22,WUHU216DAVISVP2,2013-02-14 00:00:00,
2013-02-13 16:05:00,44.5,42.3,30.43,North,0,0.0,0.0,92,0.00,,,0.22,WUHU216DAVISVP2,2013-02-14 00:05:00,
2013-02-13 16:10:00,44.3,42.1,30.43,North,0,0.0,0.0,92,0.00,,,0.22,WUHU216DAVISVP2,2013-02-14 00:10:00,
2013-02-13 16:15:00,44.2,42.0,30.43,North,0,0.0,0.0,92,0.00,,,0.22,WUHU216DAVISVP2,2013-02-14 00:15:00,
2013-02-13 16:20:00,44.2,42.3,30.42,North,0,0.0,0.0,93,0.00,,,0.22,WUHU216DAVISVP2,2013-02-14 00:20:00,
2013-02-13 16:25:00,44.2,42.3,30.43,North,0,0.0,0.0,93,0.00,,,0.22,WUHU216DAVISVP2,2013-02-14 00:25:00,
2013-02-13 16:30:00,44.2,42.3,30.43,North,0,0.0,0.0,93,0.00,,,0.22,WUHU216DAVISVP2,2013-02-14 00:30:00,
2013-02-13 16:35:00,44.2,42.3,30.43,North,0,0.0,0.0,93,0.00,,,0.22,WUHU216DAVISVP2,2013-02-14 00:35:00,
2013-02-13 16:40:00,44.2,42.0,30.43,North,0,0.0,0.0,92,0.00,,,0.22,WUHU216DAVISVP2,2013-02-14 00:40:00,
2013-02-13 16:45:00,44.2,42.0,30.44,North,0,0.0,0.0,92,0.00,,,0.22,WUHU216DAVISVP2,2013-02-14 00:45:00,
2013-02-13 16:50:00,44.2,42.3,30.44,North,0,0.0,0.0,93,0.00,,,0.22,WUHU216DAVISVP2,2013-02-14 00:50:00,
2013-02-13 16:55:00,44.3,42.4,30.44,North,0,0.0,0.0,93,0.00,,,0.22,WUHU216DAVISVP2,2013-02-14 00:55:00,
2013-02-13 17:00:00,44.3,42.4,30.44,North,0,0.0,0.0,93,0.00,,,0.22,WUHU216DAVISVP2,2013-02-14 01:00:00,
2013-02-13 17:05:00,44.3,42.4,30.44,North,0,0.0,0.0,93,0.00,,,0.22,WUHU216DAVISVP2,2013-02-14 01:05:00,
2013-02-13 17:10:00,44.2,42.3,30.44,North,0,0.0,0.0,93,0.00,,,0.22,WUHU216DAVISVP2,2013-02-14 01:10:00,
2013-02-13 17:15:00,44.2,42.3,30.44,North,0,0.0,0.0,93,0.00,,,0.22,WUHU216DAVISVP2,2013-02-14 01:15:00,
2013-02-13 17:20:00,44.2,42.3,30.44,North,0,0.0,0.0,93,0.00,,,0.22,WUHU216DAVISVP2,2013-02-14 01:20:00,
2013-02-13 17:25:00,44.2,42.3,30.44,North,0,0.0,0.0,93,0.00,,,0.22,WUHU216DAVISVP2,2013-02-14 01:25:00,
2013-02-13 17:30:00,44.1,42.2,30.44,North,0,0.0,0.0,93,0.00,,,0.22,WUHU216DAVISVP2,2013-02-14 01:30:00,
2013-02-13 17:35:00,44.0,42.1,30.44,North,0,0.0,0.0,93,0.00,,,0.22,WUHU216DAVISVP2,2013-02-14 01:35:00,
2013-02-13 17:40:00,44.0,42.1,30.44,North,0,0.0,0.0,93,0.00,,,0.22,WUHU216DAVISVP2,2013-02-14 01:40:00,
2013-02-13 17:45:00,43.9,42.0,30.44,North,0,0.0,0.0,93,0.00,,,0.22,WUHU216DAVISVP2,2013-02-14 01:45:00,
2013-02-13 17:50:00,43.8,41.9,30.45,North,0,0.0,0.0,93,0.00,,,0.22,WUHU216DAVISVP2,2013-02-14 01:50:00,
2013-02-13 17:55:00,43.7,41.8,30.44,North,0,0.0,0.0,93,0.00,,,0.22,WUHU216DAVISVP2,2013-02-14 01:55:00,
2013-02-13 18:00:00,43.7,41.8,30.44,North,0,0.0,0.0,93,0.00,,,0.22,WUHU216DAVISVP2,2013-02-14 02:00:00,
2013-02-13 18:05:00,43.6,41.7,30.44,North,0,0.0,0.0,93,0.00,,,0.22,WUHU216DAVISVP2,2013-02-14 02:05:00,
2013-02-13 18:10:00,43.5,41.9,30.44,North,0,0.0,0.0,94,0.00,,,0.22,WUHU216DAVISVP2,2013-02-14 02:10:00,
2013-02-13 18:15:00,43.4,41.8,30.44,North,0,0.0,0.0,94,0.00,,,0.22,WUHU216DAVISVP2,2013-02-14 02:15:00,
2013-02-13 18:20:00,43.4,41.8,30.44,North,0,0.0,0.0,94,0.00,,,0.22,WUHU216DAVISVP2,2013-02-14 02:20:00,
2013-02-13 18:25:00,43.3,41.7,30.44,North,0,0.0,0.0,94,0.00,,,0.22,WUHU216DAVISVP2,2013-02-14 02:25:00,
2013-02-13 18:30:00,43.3,41.7,30.44,North,0,0.0,0.0,94,0.00,,,0.22,WUHU216DAVISVP2,2013-02-14 02:30:00,
2013-02-13 18:35:00,43.3,41.7,30.44,South,180,0.0,1.0,94,0.00,,,0.22,WUHU216DAVISVP2,2013-02-14 02:35:00,
2013-02-13 18:40:00,43.3,41.7,30.44,South,180,0.0,2.0,94,0.00,,,0.22,WUHU216DAVISVP2,2013-02-14 02:40:00,
2013-02-13 18:45:00,43.3,41.7,30.45,North,0,0.0,2.0,94,0.00,,,0.22,WUHU216DAVISVP2,2013-02-14 02:45:00,
2013-02-13 18:50:00,43.3,41.7,30.45,North,0,0.0,2.0,94,0.00,,,0.22,WUHU216DAVISVP2,2013-02-14 02:50:00,
2013-02-13 18:55:00,43.2,41.6,30.45,North,0,0.0,0.0,94,0.00,,,0.22,WUHU216DAVISVP2,2013-02-14 02:55:00,
2013-02-13 19:00:00,43.2,41.6,30.45,North,0,0.0,0.0,94,0.00,,,0.22,WUHU216DAVISVP2,2013-02-14 03:00:00,
2013-02-13 19:05:00,43.2,41.6,30.45,North,0,0.0,0.0,94,0.00,,,0.22,WUHU216DAVISVP2,2013-02-14 03:05:00,
2013-02-13 19:10:00,43.2,41.6,30.45,North,0,0.0,0.0,94,0.00,,,0.22,WUHU216DAVISVP2,2013-02-14 03:10:00,
2013-02-13 19:15:00,43.2,41.6,30.45,North,0,0.0,0.0,94,0.00,,,0.22,WUHU216DAVISVP2,2013-02-14 03:15:00,
2013-02-13 19:20:00,43.1,41.5,30.45,North,0,0.0,0.0,94,0.00,,,0.22,WUHU216DAVISVP2,2013-02-14 03:20:00,
2013-02-13 19:25:00,43.1,41.5,30.45,North,0,0.0,0.0,94,0.00,,,0.22,WUHU216DAVISVP2,2013-02-14 03:25:00,
2013-02-13 19:30:00,43.1,41.5,30.46,North,0,0.0,0.0,94,0.00,,,0.22,WUHU216DAVISVP2,2013-02-14 03:30:00,
2013-02-13 19:35:00,43.0,41.4,30.45,North,0,0.0,0.0,94,0.00,,,0.22,WUHU216DAVISVP2,2013-02-14 03:35:00,
2013-02-13 19:40:00,43.0,41.4,30.46,North,0,0.0,0.0,94,0.00,,,0.22,WUHU216DAVISVP2,2013-02-14 03:40:00,
2013-02-13 19:45:00,43.0,41.4,30.46,North,0,0.0,0.0,94,0.00,,,0.22,WUHU216DAVISVP2,2013-02-14 03:45:00,
2013-02-13 19:50:00,42.9,41.3,30.46,North,0,0.0,0.0,94,0.00,,,0.22,WUHU216DAVISVP2,2013-02-14 03:50:00,
2013-02-13 19:55:00,42.9,41.3,30.46,North,0,0.0,0.0,94,0.00,,,0.22,WUHU216DAVISVP2,2013-02-14 03:55:00,
2013-02-13 20:00:00,42.8,41.2,30.46,North,0,0.0,0.0,94,0.00,,,0.22,WUHU216DAVISVP2,2013-02-14 04:00:00,
2013-02-13 20:05:00,42.8,41.2,30.46,North,0,0.0,0.0,94,0.00,,,0.22,WUHU216DAVISVP2,2013-02-14 04:05:00,
2013-02-13 20:10:00,42.7,41.1,30.46,North,0,0.0,0.0,94,0.00,,,0.22,WUHU216DAVISVP2,2013-02-14 04:10:00,
2013-02-13 20:15:00,42.6,41.0,30.46,North,0,0.0,0.0,94,0.00,,,0.22,WUHU216DAVISVP2,2013-02-14 04:15:00,
2013-02-13 20:20:00,42.5,41.2,30.46,North,0,0.0,0.0,95,0.00,,,0.22,WUHU216DAVISVP2,2013-02-14 04:20:00,
2013-02-13 20:25:00,42.4,40.8,30.46,North,0,0.0,0.0,94,0.00,,,0.22,WUHU216DAVISVP2,2013-02-14 04:25:00,
2013-02-13 20:30:00,42.4,41.1,30.46,North,0,0.0,0.0,95,0.00,,,0.22,WUHU216DAVISVP2,2013-02-14 04:30:00,
2013-02-13 20:35:00,42.3,41.0,30.46,North,0,0.0,0.0,95,0.00,,,0.22,WUHU216DAVISVP2,2013-02-14 04:35:00,
2013-02-13 20:40:00,42.3,41.0,30.46,North,0,0.0,0.0,95,0.00,,,0.22,WUHU216DAVISVP2,2013-02-14 04:40:00,
2013-02-13 20:45:00,42.3,41.0,30.46,North,0,0.0,0.0,95,0.00,,,0.22,WUHU216DAVISVP2,2013-02-14 04:45:00,
2013-02-13 20:50:00,42.3,41.0,30.47,North,0,0.0,0.0,95,0.00,,,0.22,WUHU216DAVISVP2,2013-02-14 04:50:00,
2013-02-13 20:55:00,42.3,41.0,30.47,North,0,0.0,0.0,95,0.00,,,0.22,WUHU216DAVISVP2,2013-02-14 04:55:00,
2013-02-13 21:00:00,42.3,41.0,30.47,North,0,0.0,0.0,95,0.00,,,0.22,WUHU216DAVISVP2,2013-02-14 05:00:00,
2013-02-13 21:05:00,42.4,41.1,30.46,North,0,0.0,0.0,95,0.00,,,0.22,WUHU216DAVISVP2,2013-02-14 05:05:00,
2013-02-13 21:10:00,42.4,41.1,30.46,North,0,0.0,0.0,95,0.00,,,0.22,WUHU216DAVISVP2,2013-02-14 05:10:00,
2013-02-13 21:15:00,42.4,41.1,30.46,North,0,0.0,0.0,95,0.00,,,0.22,WUHU216DAVISVP2,2013-02-14 05:15:00,
2013-02-13 21:20:00,42.4,41.1,30.46,North,0,0.0,0.0,95,0.00,,,0.22,WUHU216DAVISVP2,2013-02-14 05:20:00,
2013-02-13 21:25:00,42.3,41.0,30.46,North,0,0.0,0.0,95,0.00,,,0.22,WUHU216DAVISVP2,2013-02-14 05:25:00,
2013-02-13 21:30:00,42.3,41.0,30.46,North,0,0.0,0.0,95,0.00,,,0.22,WUHU216DAVISVP2,2013-02-14 05:30:00,
2013-02-13 21:35:00,42.4,41.1,30.46,North,0,0.0,0.0,95,0.00,,,0.22,WUHU216DAVISVP2,2013-02-14 05:35:00,
2013-02-13 21:40:00,42.4,41.1,30.47,North,0,0.0,0.0,95,0.00,,,0.22,WUHU216DAVISVP2,2013-02-14 05:40:00,
2013-02-13 21:45:00,42.4,41.1,30.47,North,0,0.0,0.0,95,0.00,,,0.22,WUHU216DAVISVP2,2013-02-14 05:45:00,
2013-02-13 21:50:00,42.4,41.1,30.47,North,0,0.0,0.0,95,0.00,,,0.22,WUHU216DAVISVP2,2013-02-14 05:50:00,
2013-02-13 21:55:00,42.5,41.2,30.47,North,0,0.0,0.0,95,0.00,,,0.22,WUHU216DAVISVP2,2013-02-14 05:55:00,
2013-02-13 22:00:00,42.5,41.2,30.47,North,0,0.0,0.0,95,0.00,,,0.22,WUHU216DAVISVP2,2013-02-14 06:00:00,
2013-02-13 22:05:00,42.5,41.2,30.47,North,0,0.0,0.0,95,0.00,,,0.22,WUHU216DAVISVP2,2013-02-14 06:05:00,
2013-02-13 22:10:00,42.5,41.2,30.48,North,0,0.0,0.0,95,0.00,,,0.22,WUHU216DAVISVP2,2013-02-14 06:10:00,
2013-02-13 22:15:00,42.5,41.2,30.48,North,0,0.0,0.0,95,0.00,,,0.22,WUHU216DAVISVP2,2013-02-14 06:15:00,
2013-02-13 22:20:00,42.5,41.2,30.48,North,0,0.0,0.0,95,0.00,,,0.22,WUHU216DAVISVP2,2013-02-14 06:20:00,
2013-02-13 22:25:00,42.6,41.3,30.48,North,0,0.0,0.0,95,0.00,,,0.22,WUHU216DAVISVP2,2013-02-14 06:25:00,
2013-02-13 22:30:00,42.6,41.3,30.48,North,0,0.0,0.0,95,0.00,,,0.22,WUHU216DAVISVP2,2013-02-14 06:30:00,
2013-02-13 22:35:00,42.7,41.4,30.48,North,0,0.0,0.0,95,0.00,,,0.22,WUHU216DAVISVP2,2013-02-14 06:35:00,
2013-02-13 22:40:00,42.7,41.4,30.48,North,0,0.0,0.0,95,0.00,,,0.22,WUHU216DAVISVP2,2013-02-14 06:40:00,
2013-02-13 22:45:00,42.7,41.4,30.48,North,0,0.0,0.0,95,0.00,,,0.22,WUHU216DAVISVP2,2013-02-14 06:45:00,
2013-02-13 22:50:00,42.6,41.3,30.48,North,0,0.0,0.0,95,0.00,,,0.22,WUHU216DAVISVP2,2013-02-14 06:50:00,
2013-02-13 22:55:00,42.6,41.3,30.48,North,0,0.0,0.0,95,0.00,,,0.22,WUHU216DAVISVP2,2013-02-14 06:55:00,
2013-02-13 23:00:00,42.6,41.3,30.48,North,0,0.0,0.0,95,0.00,,,0.22,WUHU216DAVISVP2,2013-02-14 07:00:00,
2013-02-13 23:05:00,42.5,41.2,30.48,North,0,0.0,0.0,95,0.00,,,0.22,WUHU216DAVISVP2,2013-02-14 07:05:00,
2013-02-13 23:10:00,42.5,41.2,30.48,North,0,0.0,0.0,95,0.00,,,0.22,WUHU216DAVISVP2,2013-02-14 07:10:00,
2013-02-13 23:15:00,42.5,41.2,30.48,North,0,0.0,0.0,95,0.00,,,0.22,WUHU216DAVISVP2,2013-02-14 07:15:00,
2013-02-13 23:20:00,42.5,41.2,30.48,North,0,0.0,0.0,95,0.00,,,0.22,WUHU216DAVISVP2,2013-02-14 07:20:00,
2013-02-13 23:25:00,42.5,41.2,30.48,North,0,0.0,0.0,95,0.00,,,0.22,WUHU216DAVISVP2,2013-02-14 07:25:00,
2013-02-13 23:30:00,42.5,41.2,30.48,North,0,0.0,0.0,95,0.00,,,0.22,WUHU216DAVISVP2,2013-02-14 07:30:00,
2013-02-13 23:35:00,42.5,41.2,30.48,North,0,0.0,0.0,95,0.00,,,0.22,WUHU216DAVISVP2,2013-02-14 07:35:00,
2013-02-13 23:40:00,42.5,41.2,30.49,North,0,0.0,0.0,95,0.00,,,0.22,WUHU216DAVISVP2,2013-02-14 07:40:00,
2013-02-13 23:45:00,42.5,41.2,30.49,North,0,0.0,0.0,95,0.00,,,0.22,WUHU216DAVISVP2,2013-02-14 07:45:00,
2013-02-13 23:50:00,42.6,41.3,30.49,North,0,0.0,0.0,95,0.00,,,0.22,WUHU216DAVISVP2,2013-02-14 07:50:00,
2013-02-13 23:55:00,42.6,41.3,30.49,North,0,0.0,0.0,95,0.00,,,0.22,WUHU216DAVISVP2,2013-02-14 07:55:00,